Terminal Aerodrome Forecast
Issued by NWS

Home | Current Version | Previous Version | Text Only | Print | Product List | Glossary On
Versions: 1 2 3 4 5 6 7 8 9 10 11 12 13 14 15
000
FTUS42 TJSJ 300500
TAFJBQ
TAF
TJBQ 300534Z 3006/0106 VRB05KT P6SM SKC
     FM301400 08012KT P6SM FEW030 SCT050
     FM301800 VRB12KT P6SM VCSH SCT025
     FM302200 11005KT P6SM SCT025
      AMD NOT SKED TIL 301100=

USA.gov is the U.S. government's official web portal to all federal, state and local government web resources and services.